Terminal Aerodrome Forecast
Issued by NWS

Home | Current Version | Previous Version | Text Only | Print | Product List | Glossary On
Versions: 1 2 3 4 5 6 7 8 9 10 11 12 13
041
FTUS45 KVEF 201122
TAFVGT
TAF
KVGT 201122Z 2012/2112 VRB05KT P6SM FEW130
     FM201800 15011KT P6SM SCT130
     FM210200 18009KT P6SM BKN130
     FM210800 VRB06KT P6SM BKN110 PROB30 2108/2112 -SHRA OVC110=

USA.gov is the U.S. government's official web portal to all federal, state and local government web resources and services.